Forside
METAR-TAF:

METAR-TAF

Lufthavne :

Kitakyushu, Japan

Breddekreds: 33-50N, længdekreds: 130-57E, højde: 3 m

Aktuelle vejr

Denne rapport blev lavet for 45 minutter siden, kl. 07:00 UTC
Vind 19 kt fra nordnordøst
Temperatur 10°C
Fugtighed 50%
Tryk 1026 hPa
Sigt 10 km eller mere
Nogle få skyer i en højde af 3000 ft
Spredte skyer i en højde af 5000 ft

METAR: RJFR 270700Z 02019KT 9999 FEW030 SCT050 10/M00 Q1026

Tid: 16:45 (07:45 UTC)

Vejrudsigter

Denne rapport blev lavet for 2 timer og 40 minutter siden, kl. 05:05 UTC
Foreløbig gælder fra 27 på 06 UTC til 28 på 12 UTC
Vind 14 kt fra nord
Sigt 10 km eller mere
Nogle få skyer i en højde af 2000 ft
Spredte skyer i en højde af 5000 ft
ændring
fra 27 på 21 UTC til 28 på 00 UTC
Vind 7 kt fra østsydøst
Midlertidig
fra 28 på 09 UTC til 28 på 12 UTC
Sigt: 4000 m
let regnbyger, dis

TAF: RJFR 270505Z 2706/2812 01014KT 9999 FEW020 SCT050 BECMG 2721/2800 11007KT TEMPO 2809/2812 4000 -SHRA BR

Vejrobservationer og prognoser fra mere end 4000 lufthavne (METAR og TAF).

De gule og røde prikker repræsenterer de meteorologiske stationer.

Flyt musen over at se navnet på stationen.

Så klik over at se vejr observationer og prognoser.

At skifte det kort: Klik på de grønne knapper med et sort kors for at zoome ind; på den grønne knap med en bindestreg for at zoome ud; eller på de grønne pile for tilstødende kort.


METAR-TAF: